sensor_id;sensor_type;location;lat;lon;timestamp;temperature;humidity
8537;DHT22;4306;50.210;10.628;2022-08-21T00:00:26;15.10;99.90
8537;DHT22;4306;50.210;10.628;2022-08-21T00:02:55;15.10;99.90
8537;DHT22;4306;50.210;10.628;2022-08-21T00:05:25;15.20;99.90
8537;DHT22;4306;50.210;10.628;2022-08-21T00:07:53;15.20;99.90
8537;DHT22;4306;50.210;10.628;2022-08-21T00:10:21;15.20;99.90
8537;DHT22;4306;50.210;10.628;2022-08-21T00:12:49;15.20;99.90
8537;DHT22;4306;50.210;10.628;2022-08-21T00:15:20;15.30;99.90
8537;DHT22;4306;50.210;10.628;2022-08-21T00:17:47;15.10;99.90
8537;DHT22;4306;50.210;10.628;2022-08-21T00:20:15;15.10;99.90
8537;DHT22;4306;50.210;10.628;2022-08-21T00:22:44;15.00;99.90
8537;DHT22;4306;50.210;10.628;2022-08-21T00:25:12;15.00;99.90
8537;DHT22;4306;50.210;10.628;2022-08-21T00:27:40;14.90;99.90
8537;DHT22;4306;50.210;10.628;2022-08-21T00:30:10;15.00;99.90
8537;DHT22;4306;50.210;10.628;2022-08-21T00:32:38;15.00;99.90
8537;DHT22;4306;50.210;10.628;2022-08-21T00:35:07;15.00;99.90
8537;DHT22;4306;50.210;10.628;2022-08-21T00:37:35;15.00;99.90
8537;DHT22;4306;50.210;10.628;2022-08-21T00:40:05;15.00;99.90
8537;DHT22;4306;50.210;10.628;2022-08-21T00:42:32;15.00;99.90
8537;DHT22;4306;50.210;10.628;2022-08-21T00:44:59;15.00;99.90
8537;DHT22;4306;50.210;10.628;2022-08-21T00:47:27;15.00;99.90
8537;DHT22;4306;50.210;10.628;2022-08-21T00:49:53;14.90;99.90
8537;DHT22;4306;50.210;10.628;2022-08-21T00:52:24;14.80;99.90
8537;DHT22;4306;50.210;10.628;2022-08-21T00:54:54;14.70;99.90
8537;DHT22;4306;50.210;10.628;2022-08-21T00:57:29;14.70;99.90
8537;DHT22;4306;50.210;10.628;2022-08-21T01:00:00;14.80;99.90
8537;DHT22;4306;50.210;10.628;2022-08-21T01:02:27;14.70;99.90
8537;DHT22;4306;50.210;10.628;2022-08-21T01:04:54;14.50;99.90
8537;DHT22;4306;50.210;10.628;2022-08-21T01:07:21;14.40;99.90
8537;DHT22;4306;50.210;10.628;2022-08-21T01:09:49;14.40;99.90
8537;DHT22;4306;50.210;10.628;2022-08-21T01:12:17;14.40;99.90
8537;DHT22;4306;50.210;10.628;2022-08-21T01:14:46;14.50;99.90
8537;DHT22;4306;50.210;10.628;2022-08-21T01:17:15;14.50;99.90
8537;DHT22;4306;50.210;10.628;2022-08-21T01:19:42;14.50;99.90
8537;DHT22;4306;50.210;10.628;2022-08-21T01:22:11;14.40;99.90
8537;DHT22;4306;50.210;10.628;2022-08-21T01:24:39;14.30;99.90
8537;DHT22;4306;50.210;10.628;2022-08-21T01:27:06;14.30;99.90
8537;DHT22;4306;50.210;10.628;2022-08-21T01:29:37;14.40;99.90
8537;DHT22;4306;50.210;10.628;2022-08-21T01:32:08;14.40;99.90
8537;DHT22;4306;50.210;10.628;2022-08-21T01:34:38;14.40;99.90
8537;DHT22;4306;50.210;10.628;2022-08-21T01:37:05;14.50;99.90
8537;DHT22;4306;50.210;10.628;2022-08-21T01:39:35;14.50;99.90
8537;DHT22;4306;50.210;10.628;2022-08-21T01:42:03;14.50;99.90
8537;DHT22;4306;50.210;10.628;2022-08-21T01:44:30;14.50;99.90
8537;DHT22;4306;50.210;10.628;2022-08-21T01:46:59;14.40;99.90
8537;DHT22;4306;50.210;10.628;2022-08-21T01:49:26;14.30;99.90
8537;DHT22;4306;50.210;10.628;2022-08-21T01:51:53;14.40;99.90
8537;DHT22;4306;50.210;10.628;2022-08-21T01:54:21;14.40;99.90
8537;DHT22;4306;50.210;10.628;2022-08-21T01:56:52;14.40;99.90
8537;DHT22;4306;50.210;10.628;2022-08-21T01:59:20;14.40;99.90
8537;DHT22;4306;50.210;10.628;2022-08-21T02:01:48;14.40;99.90
8537;DHT22;4306;50.210;10.628;2022-08-21T02:04:16;14.40;99.90
8537;DHT22;4306;50.210;10.628;2022-08-21T02:06:43;14.40;99.90
8537;DHT22;4306;50.210;10.628;2022-08-21T02:09:11;14.40;99.90
8537;DHT22;4306;50.210;10.628;2022-08-21T02:11:40;14.40;99.90
8537;DHT22;4306;50.210;10.628;2022-08-21T02:14:08;14.30;99.90
8537;DHT22;4306;50.210;10.628;2022-08-21T02:16:36;14.40;99.90
8537;DHT22;4306;50.210;10.628;2022-08-21T02:19:05;14.30;99.90
8537;DHT22;4306;50.210;10.628;2022-08-21T02:21:32;14.30;99.90
8537;DHT22;4306;50.210;10.628;2022-08-21T02:23:59;14.20;99.90
8537;DHT22;4306;50.210;10.628;2022-08-21T02:26:26;14.10;99.90
8537;DHT22;4306;50.210;10.628;2022-08-21T02:28:53;14.10;99.90
8537;DHT22;4306;50.210;10.628;2022-08-21T02:31:21;14.10;99.90
8537;DHT22;4306;50.210;10.628;2022-08-21T02:33:48;14.00;99.90
8537;DHT22;4306;50.210;10.628;2022-08-21T02:36:15;13.80;99.90
8537;DHT22;4306;50.210;10.628;2022-08-21T02:38:42;13.80;99.90
8537;DHT22;4306;50.210;10.628;2022-08-21T02:41:16;13.80;99.90
8537;DHT22;4306;50.210;10.628;2022-08-21T02:43:43;13.80;99.90
8537;DHT22;4306;50.210;10.628;2022-08-21T02:46:13;13.80;99.90
8537;DHT22;4306;50.210;10.628;2022-08-21T02:48:41;13.80;99.90
8537;DHT22;4306;50.210;10.628;2022-08-21T02:51:11;13.70;99.90
8537;DHT22;4306;50.210;10.628;2022-08-21T02:53:38;13.80;99.90
8537;DHT22;4306;50.210;10.628;2022-08-21T02:56:07;13.80;99.90
8537;DHT22;4306;50.210;10.628;2022-08-21T02:58:37;13.80;99.90
8537;DHT22;4306;50.210;10.628;2022-08-21T03:01:06;13.80;99.90
8537;DHT22;4306;50.210;10.628;2022-08-21T03:03:35;13.80;99.90
8537;DHT22;4306;50.210;10.628;2022-08-21T03:06:05;13.70;99.90
8537;DHT22;4306;50.210;10.628;2022-08-21T03:08:33;13.60;99.90
8537;DHT22;4306;50.210;10.628;2022-08-21T03:11:00;13.50;99.90
8537;DHT22;4306;50.210;10.628;2022-08-21T03:13:28;13.60;99.90
8537;DHT22;4306;50.210;10.628;2022-08-21T03:15:56;13.60;99.90
8537;DHT22;4306;50.210;10.628;2022-08-21T03:18:23;13.60;99.90
8537;DHT22;4306;50.210;10.628;2022-08-21T03:20:50;13.60;99.90
8537;DHT22;4306;50.210;10.628;2022-08-21T03:23:19;13.60;99.90
8537;DHT22;4306;50.210;10.628;2022-08-21T03:25:47;13.60;99.90
8537;DHT22;4306;50.210;10.628;2022-08-21T03:28:18;13.70;99.90
8537;DHT22;4306;50.210;10.628;2022-08-21T03:30:48;13.60;99.90
8537;DHT22;4306;50.210;10.628;2022-08-21T03:33:15;13.50;99.90
8537;DHT22;4306;50.210;10.628;2022-08-21T03:35:44;13.40;99.90
8537;DHT22;4306;50.210;10.628;2022-08-21T03:38:12;13.40;99.90
8537;DHT22;4306;50.210;10.628;2022-08-21T03:40:40;13.40;99.90
8537;DHT22;4306;50.210;10.628;2022-08-21T03:43:08;13.40;99.90
8537;DHT22;4306;50.210;10.628;2022-08-21T03:45:35;13.30;99.90
8537;DHT22;4306;50.210;10.628;2022-08-21T03:48:04;13.20;99.90
8537;DHT22;4306;50.210;10.628;2022-08-21T03:50:33;13.30;99.90
8537;DHT22;4306;50.210;10.628;2022-08-21T03:53:01;13.20;99.90
8537;DHT22;4306;50.210;10.628;2022-08-21T03:55:28;13.00;99.90
8537;DHT22;4306;50.210;10.628;2022-08-21T03:57:56;13.00;99.90
8537;DHT22;4306;50.210;10.628;2022-08-21T04:00:24;13.00;99.90
8537;DHT22;4306;50.210;10.628;2022-08-21T04:02:51;13.00;99.90
8537;DHT22;4306;50.210;10.628;2022-08-21T04:05:19;13.00;99.90
8537;DHT22;4306;50.210;10.628;2022-08-21T04:07:55;13.10;99.90
8537;DHT22;4306;50.210;10.628;2022-08-21T04:10:22;13.00;99.90
8537;DHT22;4306;50.210;10.628;2022-08-21T04:12:51;13.00;99.90
8537;DHT22;4306;50.210;10.628;2022-08-21T04:15:20;13.00;99.90
8537;DHT22;4306;50.210;10.628;2022-08-21T04:17:47;13.00;99.90
8537;DHT22;4306;50.210;10.628;2022-08-21T04:20:14;13.00;99.90
8537;DHT22;4306;50.210;10.628;2022-08-21T04:22:41;13.00;99.90
8537;DHT22;4306;50.210;10.628;2022-08-21T04:25:10;13.10;99.90
8537;DHT22;4306;50.210;10.628;2022-08-21T04:27:37;13.00;99.90
8537;DHT22;4306;50.210;10.628;2022-08-21T04:30:07;13.00;99.90
8537;DHT22;4306;50.210;10.628;2022-08-21T04:32:36;13.10;99.90
8537;DHT22;4306;50.210;10.628;2022-08-21T04:35:05;12.90;99.90
8537;DHT22;4306;50.210;10.628;2022-08-21T04:37:34;12.90;99.90
8537;DHT22;4306;50.210;10.628;2022-08-21T04:40:02;12.90;99.90
8537;DHT22;4306;50.210;10.628;2022-08-21T04:42:29;12.90;99.90
8537;DHT22;4306;50.210;10.628;2022-08-21T04:44:56;13.00;99.90
8537;DHT22;4306;50.210;10.628;2022-08-21T04:47:23;13.00;99.90
8537;DHT22;4306;50.210;10.628;2022-08-21T04:49:52;13.00;99.90
8537;DHT22;4306;50.210;10.628;2022-08-21T04:52:21;13.00;99.90
8537;DHT22;4306;50.210;10.628;2022-08-21T04:54:50;13.00;99.90
8537;DHT22;4306;50.210;10.628;2022-08-21T04:57:18;13.00;99.90
8537;DHT22;4306;50.210;10.628;2022-08-21T04:59:48;13.00;99.90
8537;DHT22;4306;50.210;10.628;2022-08-21T05:02:17;13.00;99.90
8537;DHT22;4306;50.210;10.628;2022-08-21T05:04:46;13.00;99.90
8537;DHT22;4306;50.210;10.628;2022-08-21T05:07:19;12.90;99.90
8537;DHT22;4306;50.210;10.628;2022-08-21T05:09:47;12.90;99.90
8537;DHT22;4306;50.210;10.628;2022-08-21T05:12:14;12.80;99.90
8537;DHT22;4306;50.210;10.628;2022-08-21T05:14:42;12.90;99.90
8537;DHT22;4306;50.210;10.628;2022-08-21T05:17:09;12.90;99.90
8537;DHT22;4306;50.210;10.628;2022-08-21T05:19:36;13.10;99.90
8537;DHT22;4306;50.210;10.628;2022-08-21T05:22:04;13.20;99.90
8537;DHT22;4306;50.210;10.628;2022-08-21T05:24:32;13.20;99.90
8537;DHT22;4306;50.210;10.628;2022-08-21T05:26:59;13.30;99.90
8537;DHT22;4306;50.210;10.628;2022-08-21T05:29:26;13.40;99.90
8537;DHT22;4306;50.210;10.628;2022-08-21T05:31:56;13.40;99.90
8537;DHT22;4306;50.210;10.628;2022-08-21T05:34:24;13.50;99.90
8537;DHT22;4306;50.210;10.628;2022-08-21T05:36:51;13.70;99.90
8537;DHT22;4306;50.210;10.628;2022-08-21T05:39:18;13.70;99.90
8537;DHT22;4306;50.210;10.628;2022-08-21T05:41:46;13.70;99.90
8537;DHT22;4306;50.210;10.628;2022-08-21T05:44:13;13.80;99.90
8537;DHT22;4306;50.210;10.628;2022-08-21T05:46:40;13.80;99.90
8537;DHT22;4306;50.210;10.628;2022-08-21T05:49:07;14.10;99.90
8537;DHT22;4306;50.210;10.628;2022-08-21T05:51:34;13.90;99.90
8537;DHT22;4306;50.210;10.628;2022-08-21T05:54:01;13.90;99.90
8537;DHT22;4306;50.210;10.628;2022-08-21T05:56:28;13.90;99.90
8537;DHT22;4306;50.210;10.628;2022-08-21T05:58:57;13.90;99.90
8537;DHT22;4306;50.210;10.628;2022-08-21T06:01:24;14.00;99.90
8537;DHT22;4306;50.210;10.628;2022-08-21T06:03:52;14.00;99.90
8537;DHT22;4306;50.210;10.628;2022-08-21T06:06:18;14.00;99.90
8537;DHT22;4306;50.210;10.628;2022-08-21T06:08:45;14.10;99.90
8537;DHT22;4306;50.210;10.628;2022-08-21T06:11:12;14.20;99.90
8537;DHT22;4306;50.210;10.628;2022-08-21T06:13:39;14.30;99.90
8537;DHT22;4306;50.210;10.628;2022-08-21T06:16:11;14.40;99.90
8537;DHT22;4306;50.210;10.628;2022-08-21T06:18:40;14.50;99.90
8537;DHT22;4306;50.210;10.628;2022-08-21T06:21:08;14.60;99.90
8537;DHT22;4306;50.210;10.628;2022-08-21T06:23:35;14.70;99.90
8537;DHT22;4306;50.210;10.628;2022-08-21T06:26:03;14.90;99.90
8537;DHT22;4306;50.210;10.628;2022-08-21T06:28:30;15.20;99.90
8537;DHT22;4306;50.210;10.628;2022-08-21T06:30:58;15.30;99.90
8537;DHT22;4306;50.210;10.628;2022-08-21T06:33:27;15.60;99.90
8537;DHT22;4306;50.210;10.628;2022-08-21T06:35:53;15.70;99.90
8537;DHT22;4306;50.210;10.628;2022-08-21T06:38:20;15.90;99.90
8537;DHT22;4306;50.210;10.628;2022-08-21T06:40:47;16.20;99.90
8537;DHT22;4306;50.210;10.628;2022-08-21T06:43:16;16.30;99.90
8537;DHT22;4306;50.210;10.628;2022-08-21T06:45:43;16.40;99.90
8537;DHT22;4306;50.210;10.628;2022-08-21T06:48:10;16.50;99.90
8537;DHT22;4306;50.210;10.628;2022-08-21T06:50:39;16.60;99.90
8537;DHT22;4306;50.210;10.628;2022-08-21T06:53:08;16.60;99.90
8537;DHT22;4306;50.210;10.628;2022-08-21T06:55:36;16.70;99.90
8537;DHT22;4306;50.210;10.628;2022-08-21T06:58:04;16.80;99.90
8537;DHT22;4306;50.210;10.628;2022-08-21T07:00:31;17.00;99.90
8537;DHT22;4306;50.210;10.628;2022-08-21T07:02:59;17.10;99.90
8537;DHT22;4306;50.210;10.628;2022-08-21T07:05:27;17.10;99.90
8537;DHT22;4306;50.210;10.628;2022-08-21T07:07:55;17.30;99.90
8537;DHT22;4306;50.210;10.628;2022-08-21T07:10:23;17.30;99.90
8537;DHT22;4306;50.210;10.628;2022-08-21T07:12:50;17.30;99.90
8537;DHT22;4306;50.210;10.628;2022-08-21T07:15:18;17.40;99.90
8537;DHT22;4306;50.210;10.628;2022-08-21T07:17:45;17.40;99.90
8537;DHT22;4306;50.210;10.628;2022-08-21T07:20:12;17.50;99.90
8537;DHT22;4306;50.210;10.628;2022-08-21T07:22:40;17.50;99.90
8537;DHT22;4306;50.210;10.628;2022-08-21T07:25:09;17.60;99.90
8537;DHT22;4306;50.210;10.628;2022-08-21T07:27:36;17.60;99.90
8537;DHT22;4306;50.210;10.628;2022-08-21T07:30:04;17.70;99.90
8537;DHT22;4306;50.210;10.628;2022-08-21T07:32:31;17.80;99.90
8537;DHT22;4306;50.210;10.628;2022-08-21T07:34:58;17.80;99.90
8537;DHT22;4306;50.210;10.628;2022-08-21T07:37:25;17.90;99.90
8537;DHT22;4306;50.210;10.628;2022-08-21T07:39:52;18.00;99.90
8537;DHT22;4306;50.210;10.628;2022-08-21T07:42:20;18.00;99.90
8537;DHT22;4306;50.210;10.628;2022-08-21T07:44:47;18.10;99.90
8537;DHT22;4306;50.210;10.628;2022-08-21T07:47:14;18.10;99.90
8537;DHT22;4306;50.210;10.628;2022-08-21T07:49:41;18.20;99.90
8537;DHT22;4306;50.210;10.628;2022-08-21T07:52:07;18.30;99.90
8537;DHT22;4306;50.210;10.628;2022-08-21T07:54:34;18.40;99.90
8537;DHT22;4306;50.210;10.628;2022-08-21T07:57:01;18.40;99.90
8537;DHT22;4306;50.210;10.628;2022-08-21T07:59:30;18.50;99.90
8537;DHT22;4306;50.210;10.628;2022-08-21T08:01:57;18.60;99.90
8537;DHT22;4306;50.210;10.628;2022-08-21T08:04:24;18.70;99.90
8537;DHT22;4306;50.210;10.628;2022-08-21T08:06:51;18.80;99.90
8537;DHT22;4306;50.210;10.628;2022-08-21T08:09:18;18.90;99.90
8537;DHT22;4306;50.210;10.628;2022-08-21T08:11:45;18.90;99.90
8537;DHT22;4306;50.210;10.628;2022-08-21T08:14:12;19.00;99.90
8537;DHT22;4306;50.210;10.628;2022-08-21T08:16:40;19.10;99.90
8537;DHT22;4306;50.210;10.628;2022-08-21T08:19:07;19.20;99.90
8537;DHT22;4306;50.210;10.628;2022-08-21T08:21:34;19.30;99.90
8537;DHT22;4306;50.210;10.628;2022-08-21T08:24:03;19.40;99.90
8537;DHT22;4306;50.210;10.628;2022-08-21T08:26:30;19.50;99.90
8537;DHT22;4306;50.210;10.628;2022-08-21T08:28:57;19.60;99.90
8537;DHT22;4306;50.210;10.628;2022-08-21T08:31:24;19.70;99.90
8537;DHT22;4306;50.210;10.628;2022-08-21T08:33:53;19.70;99.90
8537;DHT22;4306;50.210;10.628;2022-08-21T08:36:20;19.80;99.90
8537;DHT22;4306;50.210;10.628;2022-08-21T08:38:57;19.80;99.90
8537;DHT22;4306;50.210;10.628;2022-08-21T08:41:24;19.90;99.90
8537;DHT22;4306;50.210;10.628;2022-08-21T08:43:53;19.90;99.90
8537;DHT22;4306;50.210;10.628;2022-08-21T08:46:28;19.90;99.90
8537;DHT22;4306;50.210;10.628;2022-08-21T08:49:02;20.00;99.90
8537;DHT22;4306;50.210;10.628;2022-08-21T08:51:39;20.10;99.90
8537;DHT22;4306;50.210;10.628;2022-08-21T08:54:10;20.10;99.90
8537;DHT22;4306;50.210;10.628;2022-08-21T08:56:38;20.10;99.90
8537;DHT22;4306;50.210;10.628;2022-08-21T08:59:11;20.30;99.90
8537;DHT22;4306;50.210;10.628;2022-08-21T09:01:40;20.40;99.90
8537;DHT22;4306;50.210;10.628;2022-08-21T09:04:09;20.50;99.90
8537;DHT22;4306;50.210;10.628;2022-08-21T09:06:51;20.60;99.90
8537;DHT22;4306;50.210;10.628;2022-08-21T09:09:31;20.70;99.90
8537;DHT22;4306;50.210;10.628;2022-08-21T09:12:03;20.90;99.90
8537;DHT22;4306;50.210;10.628;2022-08-21T09:14:56;21.00;99.90
8537;DHT22;4306;50.210;10.628;2022-08-21T09:17:39;21.20;99.90
8537;DHT22;4306;50.210;10.628;2022-08-21T09:20:19;21.20;99.90
8537;DHT22;4306;50.210;10.628;2022-08-21T09:23:00;21.40;99.90
8537;DHT22;4306;50.210;10.628;2022-08-21T09:25:33;21.50;99.90
8537;DHT22;4306;50.210;10.628;2022-08-21T09:28:01;21.70;99.90
8537;DHT22;4306;50.210;10.628;2022-08-21T09:37:20;22.10;99.90
8537;DHT22;4306;50.210;10.628;2022-08-21T09:40:35;22.10;99.90
8537;DHT22;4306;50.210;10.628;2022-08-21T09:46:50;22.40;99.90
8537;DHT22;4306;50.210;10.628;2022-08-21T09:49:48;22.50;99.90
8537;DHT22;4306;50.210;10.628;2022-08-21T09:52:22;22.40;99.90
8537;DHT22;4306;50.210;10.628;2022-08-21T09:54:52;22.50;99.90
8537;DHT22;4306;50.210;10.628;2022-08-21T09:57:24;22.30;99.90
8537;DHT22;4306;50.210;10.628;2022-08-21T10:00:10;22.50;99.90
8537;DHT22;4306;50.210;10.628;2022-08-21T10:02:41;22.70;99.90
8537;DHT22;4306;50.210;10.628;2022-08-21T10:05:16;22.60;99.90
8537;DHT22;4306;50.210;10.628;2022-08-21T10:07:45;22.70;99.90
8537;DHT22;4306;50.210;10.628;2022-08-21T10:10:16;22.70;99.90
8537;DHT22;4306;50.210;10.628;2022-08-21T10:12:50;22.80;99.90
8537;DHT22;4306;50.210;10.628;2022-08-21T10:15:24;22.90;99.90
8537;DHT22;4306;50.210;10.628;2022-08-21T10:18:02;22.90;99.90
8537;DHT22;4306;50.210;10.628;2022-08-21T10:20:37;22.90;99.90
8537;DHT22;4306;50.210;10.628;2022-08-21T10:23:24;22.90;99.90
8537;DHT22;4306;50.210;10.628;2022-08-21T10:25:58;23.00;99.40
8537;DHT22;4306;50.210;10.628;2022-08-21T10:28:32;23.00;99.20
8537;DHT22;4306;50.210;10.628;2022-08-21T10:31:07;23.00;99.10
8537;DHT22;4306;50.210;10.628;2022-08-21T10:33:45;23.10;99.90
8537;DHT22;4306;50.210;10.628;2022-08-21T10:36:17;23.30;99.90
8537;DHT22;4306;50.210;10.628;2022-08-21T10:38:59;23.30;99.20
8537;DHT22;4306;50.210;10.628;2022-08-21T10:41:42;23.20;99.90
8537;DHT22;4306;50.210;10.628;2022-08-21T10:44:18;23.30;99.90
8537;DHT22;4306;50.210;10.628;2022-08-21T10:47:14;23.30;99.90
8537;DHT22;4306;50.210;10.628;2022-08-21T10:50:44;23.50;99.90
8537;DHT22;4306;50.210;10.628;2022-08-21T10:53:55;23.60;99.40
8537;DHT22;4306;50.210;10.628;2022-08-21T11:04:37;23.80;97.60
8537;DHT22;4306;50.210;10.628;2022-08-21T11:07:37;23.80;96.90
8537;DHT22;4306;50.210;10.628;2022-08-21T11:13:54;23.90;96.10
8537;DHT22;4306;50.210;10.628;2022-08-21T11:16:29;23.90;97.10
8537;DHT22;4306;50.210;10.628;2022-08-21T11:19:04;24.00;96.20
8537;DHT22;4306;50.210;10.628;2022-08-21T11:21:37;24.20;95.20
8537;DHT22;4306;50.210;10.628;2022-08-21T11:24:17;24.30;95.30
8537;DHT22;4306;50.210;10.628;2022-08-21T11:26:52;24.40;92.50
8537;DHT22;4306;50.210;10.628;2022-08-21T11:29:27;24.50;93.90
8537;DHT22;4306;50.210;10.628;2022-08-21T11:32:08;24.60;93.40
8537;DHT22;4306;50.210;10.628;2022-08-21T11:34:50;24.70;93.10
8537;DHT22;4306;50.210;10.628;2022-08-21T11:37:28;24.80;91.70
8537;DHT22;4306;50.210;10.628;2022-08-21T11:40:04;24.80;93.30
8537;DHT22;4306;50.210;10.628;2022-08-21T11:42:36;24.80;92.30
8537;DHT22;4306;50.210;10.628;2022-08-21T11:52:42;24.70;92.60
8537;DHT22;4306;50.210;10.628;2022-08-21T11:56:13;24.50;93.30
8537;DHT22;4306;50.210;10.628;2022-08-21T11:59:11;24.70;92.20
8537;DHT22;4306;50.210;10.628;2022-08-21T12:07:28;25.00;92.00
8537;DHT22;4306;50.210;10.628;2022-08-21T12:08:43;24.60;90.60
8537;DHT22;4306;50.210;10.628;2022-08-21T12:11:48;24.70;91.40
8537;DHT22;4306;50.210;10.628;2022-08-21T12:18:34;25.00;92.00
8537;DHT22;4306;50.210;10.628;2022-08-21T12:21:28;25.30;92.30
8537;DHT22;4306;50.210;10.628;2022-08-21T12:24:05;25.60;92.50
8537;DHT22;4306;50.210;10.628;2022-08-21T12:26:50;25.70;90.60
8537;DHT22;4306;50.210;10.628;2022-08-21T12:29:23;25.90;90.70
8537;DHT22;4306;50.210;10.628;2022-08-21T12:31:56;26.10;90.60
8537;DHT22;4306;50.210;10.628;2022-08-21T12:34:32;26.30;90.00
8537;DHT22;4306;50.210;10.628;2022-08-21T12:37:03;26.40;90.20
8537;DHT22;4306;50.210;10.628;2022-08-21T12:39:36;26.50;89.30
8537;DHT22;4306;50.210;10.628;2022-08-21T12:42:09;26.50;86.90
8537;DHT22;4306;50.210;10.628;2022-08-21T12:44:45;26.70;88.90
8537;DHT22;4306;50.210;10.628;2022-08-21T12:47:16;26.70;88.00
8537;DHT22;4306;50.210;10.628;2022-08-21T12:49:52;26.90;87.80
8537;DHT22;4306;50.210;10.628;2022-08-21T12:52:23;27.00;87.40
8537;DHT22;4306;50.210;10.628;2022-08-21T12:54:52;27.00;86.30
8537;DHT22;4306;50.210;10.628;2022-08-21T12:57:20;27.20;86.30
8537;DHT22;4306;50.210;10.628;2022-08-21T12:59:53;27.00;86.20
8537;DHT22;4306;50.210;10.628;2022-08-21T13:02:23;27.10;84.30
8537;DHT22;4306;50.210;10.628;2022-08-21T13:04:52;27.20;85.90
8537;DHT22;4306;50.210;10.628;2022-08-21T13:07:27;27.10;83.70
8537;DHT22;4306;50.210;10.628;2022-08-21T13:09:59;27.10;83.30
8537;DHT22;4306;50.210;10.628;2022-08-21T13:12:29;27.20;85.30
8537;DHT22;4306;50.210;10.628;2022-08-21T13:15:00;27.10;81.20
8537;DHT22;4306;50.210;10.628;2022-08-21T13:17:31;26.50;83.90
8537;DHT22;4306;50.210;10.628;2022-08-21T13:20:04;26.50;83.40
8537;DHT22;4306;50.210;10.628;2022-08-21T13:22:40;26.40;83.40
8537;DHT22;4306;50.210;10.628;2022-08-21T13:25:13;26.60;84.80
8537;DHT22;4306;50.210;10.628;2022-08-21T13:27:41;26.70;85.90
8537;DHT22;4306;50.210;10.628;2022-08-21T13:30:12;26.60;81.90
8537;DHT22;4306;50.210;10.628;2022-08-21T13:32:43;26.30;82.50
8537;DHT22;4306;50.210;10.628;2022-08-21T13:35:15;26.00;84.30
8537;DHT22;4306;50.210;10.628;2022-08-21T13:37:45;26.30;85.40
8537;DHT22;4306;50.210;10.628;2022-08-21T13:44:24;26.60;83.30
8537;DHT22;4306;50.210;10.628;2022-08-21T13:54:27;27.20;79.70
8537;DHT22;4306;50.210;10.628;2022-08-21T13:57:39;27.00;76.80
8537;DHT22;4306;50.210;10.628;2022-08-21T14:04:20;26.70;80.40
8537;DHT22;4306;50.210;10.628;2022-08-21T14:20:52;26.60;75.40
8537;DHT22;4306;50.210;10.628;2022-08-21T14:24:31;26.80;74.40
8537;DHT22;4306;50.210;10.628;2022-08-21T14:28:18;27.60;77.20
8537;DHT22;4306;50.210;10.628;2022-08-21T14:53:29;27.50;71.20
8537;DHT22;4306;50.210;10.628;2022-08-21T14:56:22;27.40;71.10
8537;DHT22;4306;50.210;10.628;2022-08-21T15:00:09;27.60;71.30
8537;DHT22;4306;50.210;10.628;2022-08-21T15:03:18;27.40;68.80
8537;DHT22;4306;50.210;10.628;2022-08-21T15:09:55;27.60;68.70
8537;DHT22;4306;50.210;10.628;2022-08-21T15:19:56;28.00;63.20
8537;DHT22;4306;50.210;10.628;2022-08-21T15:23:06;28.00;63.60
8537;DHT22;4306;50.210;10.628;2022-08-21T15:29:44;28.00;64.00
8537;DHT22;4306;50.210;10.628;2022-08-21T15:32:56;27.70;62.20
8537;DHT22;4306;50.210;10.628;2022-08-21T15:42:41;27.00;61.70
8537;DHT22;4306;50.210;10.628;2022-08-21T15:57:24;27.40;64.00
8537;DHT22;4306;50.210;10.628;2022-08-21T16:20:17;27.30;58.90
8537;DHT22;4306;50.210;10.628;2022-08-21T16:26:49;27.00;59.60
8537;DHT22;4306;50.210;10.628;2022-08-21T16:33:38;26.90;60.60
8537;DHT22;4306;50.210;10.628;2022-08-21T17:04:49;26.30;60.40
8537;DHT22;4306;50.210;10.628;2022-08-21T17:11:42;26.10;61.00
8537;DHT22;4306;50.210;10.628;2022-08-21T17:15:03;26.20;62.60
8537;DHT22;4306;50.210;10.628;2022-08-21T17:18:26;25.90;61.70
8537;DHT22;4306;50.210;10.628;2022-08-21T17:22:10;26.10;62.20
8537;DHT22;4306;50.210;10.628;2022-08-21T17:25:50;25.90;62.30
8537;DHT22;4306;50.210;10.628;2022-08-21T17:43:09;25.30;64.70
8537;DHT22;4306;50.210;10.628;2022-08-21T17:46:25;25.20;65.50
8537;DHT22;4306;50.210;10.628;2022-08-21T17:53:04;25.30;66.50
8537;DHT22;4306;50.210;10.628;2022-08-21T17:59:42;25.20;66.90
8537;DHT22;4306;50.210;10.628;2022-08-21T18:02:48;25.10;67.50
8537;DHT22;4306;50.210;10.628;2022-08-21T18:12:37;24.90;68.60
8537;DHT22;4306;50.210;10.628;2022-08-21T18:19:22;24.60;69.20
8537;DHT22;4306;50.210;10.628;2022-08-21T18:22:37;24.60;69.70
8537;DHT22;4306;50.210;10.628;2022-08-21T18:29:57;23.80;71.60
8537;DHT22;4306;50.210;10.628;2022-08-21T18:33:29;23.50;71.30
8537;DHT22;4306;50.210;10.628;2022-08-21T18:36:04;23.20;71.30
8537;DHT22;4306;50.210;10.628;2022-08-21T18:52:19;22.20;75.40
8537;DHT22;4306;50.210;10.628;2022-08-21T18:55:26;22.10;75.80
8537;DHT22;4306;50.210;10.628;2022-08-21T18:58:49;21.90;76.80
8537;DHT22;4306;50.210;10.628;2022-08-21T19:01:56;21.80;76.80
8537;DHT22;4306;50.210;10.628;2022-08-21T19:14:45;21.50;78.80
8537;DHT22;4306;50.210;10.628;2022-08-21T19:20:45;21.20;80.90
8537;DHT22;4306;50.210;10.628;2022-08-21T19:26:58;21.00;81.70
8537;DHT22;4306;50.210;10.628;2022-08-21T19:30:08;21.10;81.80
8537;DHT22;4306;50.210;10.628;2022-08-21T19:36:07;20.80;84.30
8537;DHT22;4306;50.210;10.628;2022-08-21T19:39:25;20.60;83.20
8537;DHT22;4306;50.210;10.628;2022-08-21T19:45:43;20.60;82.50
8537;DHT22;4306;50.210;10.628;2022-08-21T19:49:12;20.30;82.30
8537;DHT22;4306;50.210;10.628;2022-08-21T19:52:39;20.80;83.80
8537;DHT22;4306;50.210;10.628;2022-08-21T19:59:04;20.50;84.00
8537;DHT22;4306;50.210;10.628;2022-08-21T20:02:39;20.10;84.70
8537;DHT22;4306;50.210;10.628;2022-08-21T20:05:24;20.00;84.90
8537;DHT22;4306;50.210;10.628;2022-08-21T20:08:24;20.10;85.50
8537;DHT22;4306;50.210;10.628;2022-08-21T20:11:56;19.90;85.30
8537;DHT22;4306;50.210;10.628;2022-08-21T20:17:49;19.90;85.30
8537;DHT22;4306;50.210;10.628;2022-08-21T20:24:13;19.70;87.40
8537;DHT22;4306;50.210;10.628;2022-08-21T20:27:39;19.50;87.00
8537;DHT22;4306;50.210;10.628;2022-08-21T20:37:19;19.40;86.90
